Accueil
METAR-TAF:

METAR-TAF

Aéroports :

St Athan, Pays de Galles

latitude: 51-24N, longitude: 003-26W, altitude: 50 m

Observation

Le bulletin a été fait il y a 13 minutes, à 13:50 UTC
Vent 13 kt de est
Température 5°C
Humidité 60%
Pression 1020 hPa
Visibilité 10 km ou plus
pas de nuages en-dessous de 1500 mètres et pas de cumulonimbus.

METAR: EGDX 241350Z 08013KT CAVOK 05/M02 Q1020 BLU

Heure: 14:03 (14:03 UTC)

Prévision

Le bulletin a été fait il y a 3 heures et 26 minutes, à 10:37 UTC
Prévision valable du 24 à 12 UTC au 24 à 18 UTC
Vent 14 kt de est
Visibilité 10 km ou plus
pas de nuages en-dessous de 1500 mètres et pas de cumulonimbus.
Probabilité 40% :
Temporairement
du 24 à 13 UTC au 24 à 18 UTC
Vent 15 kt de est avec des rafales jusqu'à 25 kt

TAF: EGDX 241037Z 2412/2418 08014KT CAVOK PROB40 TEMPO 2413/2418 09015G25KT

Observations et prévisions météorologiques de plus de 4000 aéroports (messages METAR et TAF).

Les stations disponibles sont représentées par des disques jaunes et rouges sur la carte.

Passer la souris dessus pour voir le nom de la station.

Cliquer dessus pour voir les observations et prévisions météorologiques.

Pour changer de carte: cliquez sur les boutons verts avec une croix noire pour zoomer, sur le bouton vert avec un tiret pour effectuer un zoom arrière, ou sur les flèches vertes pour les cartes adjacentes.


METAR-TAF: